Time;durP1;ratioP1;P1;durP2;ratioP2;P2;SDS_P1;SDS_P2;PMS_P1;PMS_P2;Temp;Humidity;BMP_temperature;BMP_pressure;BME280_temperature;BME280_humidity;BME280_pressure;Samples;Min_cycle;Max_cycle;Signal;HPM_P1;HPM_P2
2021/03/04 00:00:53;;;;;;;59.08;13.98;;;;;;;1.92;82.97;100721.41;5063172;28;20477;-64
2021/03/04 00:03:19;;;;;;;27.58;10.77;;;;;;;1.75;82.76;100728.53;5063371;28;20025;-65
2021/03/04 00:05:44;;;;;;;36.13;12.57;;;;;;;1.62;82.97;100737.50;5063465;28;20080;-65
2021/03/04 00:08:10;;;;;;;69.32;13.32;;;;;;;1.51;83.03;100741.38;5063472;28;20047;-65
2021/03/04 00:10:35;;;;;;;77.40;13.65;;;;;;;1.38;82.97;100747.75;5063634;28;20049;-65
2021/03/04 00:13:01;;;;;;;46.05;12.48;;;;;;;1.18;83.42;100728.31;5063206;28;20116;-64
2021/03/04 00:15:28;;;;;;;55.55;14.25;;;;;;;1.12;83.74;100751.13;5063079;28;20037;-65
2021/03/04 00:17:54;;;;;;;131.98;24.75;;;;;;;1.10;83.95;100745.97;5063360;28;20108;-64
2021/03/04 00:20:28;;;;;;;150.77;19.15;;;;;;;1.15;83.59;100747.84;5061700;28;20024;-67
2021/03/04 00:22:54;;;;;;;71.68;16.75;;;;;;;0.95;83.80;100743.75;5063174;28;20045;-66
2021/03/04 00:25:22;;;;;;;141.60;17.40;;;;;;;0.93;83.81;100737.69;5063332;28;20075;-65
2021/03/04 00:27:47;;;;;;;73.68;16.38;;;;;;;0.84;84.03;100745.91;5063315;28;20025;-66
2021/03/04 00:30:15;;;;;;;138.73;18.95;;;;;;;0.78;84.09;100750.78;5063077;28;20025;-65
2021/03/04 00:32:41;;;;;;;219.80;24.85;;;;;;;0.71;84.04;100754.78;5066098;28;20029;-66
2021/03/04 00:35:07;;;;;;;255.27;26.73;;;;;;;0.61;84.14;100748.47;5067020;28;20085;-67
2021/03/04 00:37:32;;;;;;;180.18;21.33;;;;;;;0.57;84.26;100771.28;5067446;28;20029;-66
2021/03/04 00:39:58;;;;;;;165.88;22.77;;;;;;;0.51;84.29;100745.50;5067064;28;20269;-67
2021/03/04 00:42:24;;;;;;;90.13;13.48;;;;;;;0.44;84.58;100750.38;5067329;28;20094;-67
2021/03/04 00:44:49;;;;;;;97.90;13.40;;;;;;;0.42;84.39;100748.56;5066865;28;20023;-68
2021/03/04 00:47:15;;;;;;;28.20;9.20;;;;;;;0.30;84.74;100746.41;5066574;28;20021;-68
2021/03/04 00:49:40;;;;;;;26.88;9.15;;;;;;;0.23;84.85;100758.06;5066857;28;20044;-67
2021/03/04 00:52:06;;;;;;;31.77;10.55;;;;;;;0.18;85.17;100762.97;5066697;28;20039;-68
2021/03/04 00:54:32;;;;;;;28.58;11.05;;;;;;;0.19;85.30;100759.59;5066596;28;20072;-67
2021/03/04 00:56:57;;;;;;;20.98;10.48;;;;;;;0.27;85.34;100759.06;5066784;28;20017;-67
2021/03/04 00:59:23;;;;;;;21.60;10.98;;;;;;;0.30;85.39;100752.41;5065457;28;20390;-68
2021/03/04 01:01:48;;;;;;;18.33;8.73;;;;;;;0.38;85.24;100760.34;5066516;28;20403;-68
2021/03/04 01:04:14;;;;;;;18.38;9.80;;;;;;;0.38;84.98;100762.03;5066498;28;20501;-67
2021/03/04 01:06:39;;;;;;;16.25;7.55;;;;;;;0.36;85.12;100756.88;5065164;28;20032;-69
2021/03/04 01:09:05;;;;;;;16.83;8.13;;;;;;;0.37;85.04;100758.59;5066478;28;20052;-66
2021/03/04 01:11:31;;;;;;;13.30;7.88;;;;;;;0.41;85.23;100760.47;5066574;28;20035;-66
2021/03/04 01:13:57;;;;;;;13.70;6.15;;;;;;;0.43;84.86;100763.94;5066223;28;20044;-66
2021/03/04 01:16:22;;;;;;;6.72;3.30;;;;;;;0.47;84.59;100768.38;5066164;28;20064;-66
2021/03/04 01:18:47;;;;;;;13.48;7.28;;;;;;;0.46;84.49;100758.09;5066512;28;20421;-65
2021/03/04 01:21:13;;;;;;;8.90;5.00;;;;;;;0.46;84.68;100756.41;5066237;28;20078;-64
2021/03/04 01:23:38;;;;;;;5.63;3.53;;;;;;;0.52;84.52;100752.34;5064692;28;20049;-65
2021/03/04 01:26:04;;;;;;;7.60;4.88;;;;;;;0.57;84.33;100758.50;5066240;28;20074;-65
2021/03/04 01:28:29;;;;;;;7.18;4.57;;;;;;;0.58;84.33;100761.13;5066222;28;20024;-65
2021/03/04 01:30:54;;;;;;;6.70;3.80;;;;;;;0.63;83.75;100740.84;5065930;28;20025;-65
2021/03/04 01:33:20;;;;;;;8.77;4.63;;;;;;;0.67;83.90;100746.97;5065822;28;20025;-64
2021/03/04 01:35:46;;;;;;;9.35;4.13;;;;;;;0.66;83.93;100757.97;5066015;28;20025;-66
2021/03/04 01:38:12;;;;;;;4.45;3.15;;;;;;;0.69;83.78;100742.75;5065980;28;20049;-66
2021/03/04 01:40:38;;;;;;;6.95;3.03;;;;;;;0.76;83.25;100754.09;5065702;28;20075;-66
2021/03/04 01:43:03;;;;;;;6.78;4.95;;;;;;;0.71;83.42;100748.81;5064367;28;20064;-66
2021/03/04 01:45:29;;;;;;;8.27;5.15;;;;;;;0.74;83.40;100746.38;5065523;28;20028;-66
2021/03/04 01:47:55;;;;;;;8.13;3.65;;;;;;;0.78;83.32;100744.81;5066192;28;20074;-66
2021/03/04 01:50:26;;;;;;;9.20;3.78;;;;;;;0.79;83.15;100728.63;5065867;28;20029;-66
2021/03/04 01:52:53;;;;;;;8.27;5.10;;;;;;;0.89;82.47;100728.19;5065891;28;20047;-66
2021/03/04 01:55:19;;;;;;;7.25;4.22;;;;;;;0.83;82.65;100746.69;5065291;28;20033;-66
2021/03/04 01:57:46;;;;;;;7.20;4.32;;;;;;;0.77;82.48;100723.47;5065647;28;20025;-66
2021/03/04 02:00:13;;;;;;;6.93;4.30;;;;;;;0.74;82.49;100739.56;5065681;28;20085;-66
2021/03/04 02:02:39;;;;;;;6.10;3.75;;;;;;;0.76;82.34;100748.97;5065452;28;20020;-68
2021/03/04 02:05:10;;;;;;;8.45;4.78;;;;;;;0.80;81.77;100735.50;5065528;28;20022;-65
2021/03/04 02:07:44;;;;;;;6.72;3.30;;;;;;;0.74;82.12;100729.34;5065433;28;20024;-66
2021/03/04 02:10:18;;;;;;;7.50;4.32;;;;;;;0.70;82.13;100732.59;5065511;28;20031;-66
2021/03/04 02:13:01;;;;;;;10.95;4.68;;;;;;;0.74;82.35;100744.69;5065601;28;20032;-65
2021/03/04 02:15:54;;;;;;;7.53;3.92;;;;;;;0.81;82.14;100738.13;5065377;28;20094;-66
2021/03/04 02:18:26;;;;;;;4.85;3.05;;;;;;;0.73;81.68;100721.63;5065328;28;20100;-66
2021/03/04 02:21:07;;;;;;;4.05;2.45;;;;;;;0.80;81.73;100754.25;5065282;28;20096;-66
2021/03/04 02:24:03;;;;;;;8.90;4.22;;;;;;;0.77;81.82;100758.41;5064997;28;20092;-65
2021/03/04 02:26:47;;;;;;;5.07;3.05;;;;;;;0.76;81.55;100759.19;5065265;28;20127;-65
2021/03/04 02:29:19;;;;;;;5.35;3.53;;;;;;;0.79;81.22;100756.75;5063791;28;20021;-65
2021/03/04 02:31:46;;;;;;;5.35;3.35;;;;;;;0.83;81.11;100753.53;5064906;28;20024;-65
2021/03/04 02:34:13;;;;;;;6.97;3.47;;;;;;;0.90;80.49;100742.69;5064762;28;20425;-66
2021/03/04 02:36:43;;;;;;;6.03;3.78;;;;;;;0.83;80.65;100743.28;5065031;28;20028;-66
2021/03/04 02:39:09;;;;;;;5.00;3.13;;;;;;;0.85;80.55;100744.19;5064707;28;20029;-65
2021/03/04 02:41:37;;;;;;;5.95;2.97;;;;;;;0.85;80.55;100751.88;5065075;28;20366;-65
2021/03/04 02:44:08;;;;;;;6.85;3.60;;;;;;;0.88;80.41;100751.97;5064493;28;20017;-65
2021/03/04 02:46:35;;;;;;;5.45;3.25;;;;;;;0.90;80.35;100755.47;5064514;28;20028;-64
2021/03/04 02:49:02;;;;;;;6.97;3.30;;;;;;;0.86;80.11;100748.53;5064626;28;20048;-65
2021/03/04 02:51:29;;;;;;;8.18;3.58;;;;;;;0.90;79.62;100742.69;5064673;28;20040;-65
2021/03/04 02:53:56;;;;;;;5.65;3.30;;;;;;;0.92;79.75;100753.84;5064274;28;20028;-66
2021/03/04 02:56:24;;;;;;;5.90;2.85;;;;;;;0.92;80.15;100747.88;5064515;28;20025;-67
2021/03/04 02:58:53;;;;;;;2.88;1.80;;;;;;;0.99;79.26;100754.97;5064582;28;20104;-65
2021/03/04 03:01:24;;;;;;;7.72;2.67;;;;;;;0.96;79.17;100755.69;5064395;28;20111;-65
2021/03/04 03:03:52;;;;;;;6.70;2.95;;;;;;;1.03;78.06;100751.69;5064440;28;20082;-66
2021/03/04 03:06:20;;;;;;;2.60;1.70;;;;;;;0.96;78.18;100744.59;5064522;28;20052;-66
2021/03/04 03:08:47;;;;;;;7.18;3.42;;;;;;;0.93;77.95;100762.38;5064349;28;20054;-65
2021/03/04 03:11:15;;;;;;;5.85;2.63;;;;;;;0.92;77.64;100753.84;5062968;28;20032;-66
2021/03/04 03:13:42;;;;;;;3.00;1.60;;;;;;;0.98;77.43;100769.41;5064013;28;20020;-66
2021/03/04 03:16:08;;;;;;;5.35;2.72;;;;;;;0.98;77.15;100769.41;5063896;28;20082;-65
2021/03/04 03:18:33;;;;;;;3.25;2.00;;;;;;;1.00;77.05;100784.81;5062537;28;20029;-66
2021/03/04 03:20:59;;;;;;;2.55;1.98;;;;;;;0.99;76.73;100781.38;5064162;28;20040;-66
2021/03/04 03:23:25;;;;;;;3.10;1.95;;;;;;;1.05;75.58;100780.75;5063875;28;20028;-65
2021/03/04 03:25:50;;;;;;;5.20;2.80;;;;;;;1.09;75.70;100786.81;5064068;28;20025;-65
2021/03/04 03:28:16;;;;;;;5.60;2.75;;;;;;;1.09;75.32;100787.72;5062574;28;20107;-66
2021/03/04 03:30:41;;;;;;;3.88;2.08;;;;;;;1.12;75.33;100786.94;5063777;28;20048;-65
2021/03/04 03:33:11;;;;;;;5.07;1.92;;;;;;;1.13;74.77;100788.69;5063693;28;20421;-66
2021/03/04 03:35:37;;;;;;;4.05;2.30;;;;;;;1.15;74.46;100794.72;5062546;28;20040;-65
2021/03/04 03:38:04;;;;;;;1.75;1.10;;;;;;;1.14;74.31;100805.78;5063975;28;20051;-66
2021/03/04 03:40:32;;;;;;;2.30;1.50;;;;;;;1.17;73.58;100805.88;5063678;28;20162;-66
2021/03/04 03:42:59;;;;;;;2.42;1.33;;;;;;;1.20;73.14;100810.22;5063609;28;20036;-66
2021/03/04 03:45:30;;;;;;;4.30;1.65;;;;;;;1.24;72.75;100817.22;5063698;28;20032;-66
2021/03/04 03:47:56;;;;;;;2.97;1.25;;;;;;;1.25;72.26;100826.63;5063557;28;20084;-66
2021/03/04 03:50:23;;;;;;;1.92;1.10;;;;;;;1.29;71.63;100820.81;5063687;28;20112;-66
2021/03/04 03:52:50;;;;;;;4.18;2.13;;;;;;;1.33;70.79;100821.78;5063327;28;20021;-66
2021/03/04 03:55:16;;;;;;;1.98;1.02;;;;;;;1.28;70.46;100810.53;5063358;28;20040;-66
2021/03/04 03:57:43;;;;;;;1.77;0.98;;;;;;;1.34;69.70;100819.28;5063432;28;20047;-67
2021/03/04 04:00:11;;;;;;;1.40;1.10;;;;;;;1.48;66.87;100821.47;5063441;28;20024;-67
2021/03/04 04:02:37;;;;;;;6.18;1.15;;;;;;;1.42;67.11;100818.72;5063000;28;20039;-65
2021/03/04 04:05:04;;;;;;;2.47;0.70;;;;;;;1.40;67.83;100830.56;5063253;28;20020;-66
2021/03/04 04:07:30;;;;;;;2.72;0.88;;;;;;;1.40;66.83;100839.13;5062492;28;20058;-66
2021/03/04 04:09:57;;;;;;;1.90;1.38;;;;;;;1.41;66.88;100825.50;5063282;28;20045;-66
2021/03/04 04:12:23;;;;;;;2.78;1.00;;;;;;;1.50;65.55;100832.66;5061776;28;20025;-66
2021/03/04 04:14:50;;;;;;;1.50;0.80;;;;;;;1.48;64.97;100842.84;5062921;28;20076;-66
2021/03/04 04:17:17;;;;;;;1.73;0.98;;;;;;;1.42;65.04;100832.34;5062941;28;20033;-66
2021/03/04 04:19:43;;;;;;;2.67;0.75;;;;;;;1.47;65.40;100843.63;5045251;28;20059;-65
2021/03/04 04:22:09;;;;;;;1.83;1.02;;;;;;;1.48;65.04;100847.94;5063219;28;20032;-65
2021/03/04 04:24:35;;;;;;;3.25;1.05;;;;;;;1.50;65.52;100845.44;5062975;28;20021;-65
2021/03/04 04:27:00;;;;;;;2.72;1.10;;;;;;;1.51;65.35;100851.41;5061576;28;20025;-66
2021/03/04 04:29:26;;;;;;;1.85;1.13;;;;;;;1.52;65.41;100845.50;5063070;28;20059;-66
2021/03/04 04:31:51;;;;;;;2.30;0.90;;;;;;;1.50;65.34;100849.69;5062959;28;20021;-66
2021/03/04 04:34:16;;;;;;;5.00;1.45;;;;;;;1.47;64.61;100847.91;5063074;28;20074;-67
2021/03/04 04:36:42;;;;;;;2.97;0.82;;;;;;;1.48;64.92;100842.84;5063119;28;20040;-66
2021/03/04 04:39:07;;;;;;;2.30;0.90;;;;;;;1.46;65.20;100848.69;5063036;28;20024;-66
2021/03/04 04:41:33;;;;;;;3.17;0.80;;;;;;;1.45;65.33;100841.84;5063257;28;20036;-67
2021/03/04 04:43:58;;;;;;;5.18;1.27;;;;;;;1.38;64.10;100847.53;5063018;28;20028;-66
2021/03/04 04:46:23;;;;;;;3.00;1.27;;;;;;;1.32;64.92;100835.41;5062929;28;20021;-66
2021/03/04 04:48:49;;;;;;;10.02;1.13;;;;;;;1.36;63.71;100842.38;5063001;28;20048;-67
2021/03/04 04:51:14;;;;;;;2.80;1.17;;;;;;;1.35;62.71;100832.97;5063102;28;20029;-67
2021/03/04 04:53:40;;;;;;;1.48;0.80;;;;;;;1.34;61.98;100841.47;5062896;28;20024;-66
2021/03/04 04:56:06;;;;;;;2.10;0.90;;;;;;;1.27;62.22;100832.69;5063156;28;20033;-66
2021/03/04 04:58:32;;;;;;;5.38;1.00;;;;;;;1.25;62.79;100839.41;5063006;28;20125;-66
2021/03/04 05:00:57;;;;;;;4.85;1.40;;;;;;;1.28;62.57;100839.53;5063132;28;20089;-67
2021/03/04 05:03:23;;;;;;;3.33;0.90;;;;;;;1.30;62.34;100839.59;5061465;28;20234;-66
2021/03/04 05:05:48;;;;;;;2.35;1.00;;;;;;;1.28;61.26;100844.66;5063038;28;20354;-71
2021/03/04 05:08:13;;;;;;;4.93;1.05;;;;;;;1.30;61.63;100844.69;5062903;28;20032;-66
2021/03/04 05:10:39;;;;;;;1.50;0.93;;;;;;;1.28;61.59;100847.19;5062726;28;20044;-67
2021/03/04 05:13:04;;;;;;;2.10;1.15;;;;;;;1.30;61.68;100849.81;5062692;28;20028;-67
2021/03/04 05:15:30;;;;;;;1.98;1.05;;;;;;;1.31;61.13;100851.59;5062658;28;20025;-66
2021/03/04 05:17:55;;;;;;;1.65;0.98;;;;;;;1.23;61.03;100848.75;5064175;28;20021;-67
2021/03/04 05:20:21;;;;;;;1.67;1.02;;;;;;;1.31;60.88;100851.59;5066390;28;20337;-66
2021/03/04 05:22:46;;;;;;;2.88;0.70;;;;;;;1.21;61.16;100835.91;5066379;28;20100;-66
2021/03/04 05:25:12;;;;;;;3.15;1.27;;;;;;;1.21;61.44;100841.00;5066239;28;20021;-67
2021/03/04 05:27:38;;;;;;;1.35;1.00;;;;;;;1.29;61.42;100850.63;5064934;28;20025;-67
2021/03/04 05:30:07;;;;;;;1.92;1.10;;;;;;;1.27;61.13;100842.91;5064724;28;20025;-66
2021/03/04 05:32:33;;;;;;;8.27;1.55;;;;;;;1.30;61.24;100848.16;5066229;28;20044;-67
2021/03/04 05:34:58;;;;;;;2.58;1.35;;;;;;;1.22;61.07;100839.31;5065961;28;20028;-67
2021/03/04 05:37:24;;;;;;;3.97;1.35;;;;;;;1.26;61.36;100853.97;5065998;28;20032;-67
2021/03/04 05:39:49;;;;;;;6.35;1.63;;;;;;;1.21;61.03;100855.47;5065711;28;20060;-67
2021/03/04 05:42:14;;;;;;;4.80;1.48;;;;;;;1.18;61.30;100852.81;5066117;28;20107;-67
2021/03/04 05:44:42;;;;;;;6.32;1.42;;;;;;;1.15;61.36;100850.97;5066111;28;20074;-66
2021/03/04 05:47:09;;;;;;;8.25;2.15;;;;;;;1.13;61.40;100867.97;5065775;28;20024;-66
2021/03/04 05:49:44;;;;;;;5.70;1.10;;;;;;;1.09;61.64;100859.31;5065854;28;20152;-67
2021/03/04 05:52:14;;;;;;;4.90;1.40;;;;;;;1.11;61.50;100867.94;5065940;28;20029;-67
2021/03/04 05:54:40;;;;;;;2.97;1.33;;;;;;;1.11;61.40;100869.59;5065722;28;20016;-67
2021/03/04 05:57:07;;;;;;;2.95;2.25;;;;;;;1.08;61.58;100864.38;5065910;28;20085;-67
2021/03/04 05:59:34;;;;;;;1.02;0.80;;;;;;;1.03;61.47;100853.97;5065817;28;20477;-68
2021/03/04 06:02:04;;;;;;;7.35;1.38;;;;;;;1.01;61.37;100859.84;5064316;28;20060;-67
2021/03/04 06:04:30;;;;;;;3.67;1.40;;;;;;;0.97;61.69;100858.84;5065689;28;20025;-67
2021/03/04 06:06:55;;;;;;;3.97;1.17;;;;;;;1.01;61.86;100870.06;5065717;28;20204;-66
2021/03/04 06:09:21;;;;;;;8.93;1.67;;;;;;;0.96;62.06;100870.75;5066000;28;20078;-66
2021/03/04 06:11:46;;;;;;;3.15;1.30;;;;;;;0.93;62.31;100882.53;5065401;28;20029;-68
2021/03/04 06:14:12;;;;;;;2.17;1.13;;;;;;;0.90;62.59;100887.53;5065606;28;20024;-67
2021/03/04 06:16:38;;;;;;;5.63;1.70;;;;;;;0.88;62.83;100891.72;5065261;28;20489;-67
2021/03/04 06:19:03;;;;;;;4.15;1.02;;;;;;;0.84;63.00;100888.19;5065475;28;20032;-67
2021/03/04 06:21:29;;;;;;;1.08;0.95;;;;;;;0.79;63.28;100892.22;5065293;28;20025;-68
2021/03/04 06:23:57;;;;;;;3.45;1.67;;;;;;;0.74;63.30;100905.72;5065259;28;20028;-67
2021/03/04 06:26:38;;;;;;;14.25;2.03;;;;;;;0.70;63.73;100908.09;5065556;28;20025;-67
2021/03/04 06:29:18;;;;;;;12.32;1.55;;;;;;;0.65;63.71;100907.03;5064604;28;20104;-68
2021/03/04 06:32:04;;;;;;;2.78;1.27;;;;;;;0.44;64.08;100888.31;5065047;28;20029;-68
2021/03/04 06:34:30;;;;;;;3.80;1.55;;;;;;;0.60;63.94;100910.28;5065114;28;20021;-68
2021/03/04 06:37:01;;;;;;;7.28;2.03;;;;;;;0.55;64.34;100909.19;5065291;28;20125;-68
2021/03/04 06:39:44;;;;;;;1.42;1.10;;;;;;;0.58;64.33;100916.09;5064975;28;20095;-68
2021/03/04 06:42:12;;;;;;;3.60;1.50;;;;;;;0.65;64.59;100922.34;5065083;28;20068;-67
2021/03/04 06:44:45;;;;;;;7.43;1.85;;;;;;;0.78;64.68;100924.59;5064963;28;20028;-67
2021/03/04 06:47:11;;;;;;;5.38;1.65;;;;;;;1.20;65.07;100938.13;5064773;28;20031;-68
2021/03/04 06:49:42;;;;;;;10.57;1.67;;;;;;;1.68;64.50;100942.47;5065170;28;20063;-67
2021/03/04 06:52:10;;;;;;;4.72;1.38;;;;;;;2.23;63.92;100936.72;5065040;28;20386;-68
2021/03/04 06:54:36;;;;;;;3.90;1.60;;;;;;;2.76;62.33;100940.16;5064813;28;20017;-67
2021/03/04 06:57:09;;;;;;;7.72;1.75;;;;;;;3.15;59.94;100942.22;5064909;28;20388;-68
2021/03/04 06:59:42;;;;;;;4.35;1.17;;;;;;;3.49;58.92;100941.50;5064839;28;20024;-67
2021/03/04 07:02:08;;;;;;;4.10;1.23;;;;;;;3.71;56.98;100937.84;5064580;28;20025;-68
2021/03/04 07:04:33;;;;;;;5.85;1.40;;;;;;;3.91;57.13;100950.41;5064541;28;20017;-67
2021/03/04 07:06:59;;;;;;;4.43;1.40;;;;;;;4.29;57.33;100949.69;5064658;28;20029;-68
2021/03/04 07:09:25;;;;;;;6.72;1.52;;;;;;;4.60;56.07;100937.59;5064690;28;20444;-68
2021/03/04 07:11:52;;;;;;;6.38;1.95;;;;;;;4.80;54.86;100950.09;5063365;28;20515;-69
2021/03/04 07:14:18;;;;;;;2.45;1.15;;;;;;;5.14;54.35;100950.91;5064482;28;20076;-68
2021/03/04 07:16:45;;;;;;;7.45;1.25;;;;;;;5.31;51.38;100948.72;5064714;28;20033;-69
2021/03/04 07:19:13;;;;;;;4.97;1.00;;;;;;;5.46;52.10;100948.16;5064893;28;20084;-68
2021/03/04 07:21:40;;;;;;;8.68;1.08;;;;;;;5.59;49.51;100948.44;5064591;28;20029;-68
2021/03/04 07:24:07;;;;;;;2.80;0.80;;;;;;;5.52;48.71;100952.59;5064481;28;20024;-68
2021/03/04 07:26:36;;;;;;;2.15;1.20;;;;;;;5.36;48.32;100941.09;5064574;28;20027;-68
2021/03/04 07:29:07;;;;;;;3.15;0.90;;;;;;;5.42;46.84;100955.78;5064456;28;20032;-69
2021/03/04 07:31:32;;;;;;;4.20;1.65;;;;;;;5.50;48.29;100958.53;5064241;28;20088;-69
2021/03/04 07:33:59;;;;;;;1.30;0.70;;;;;;;5.57;47.00;100953.53;5064465;28;20044;-68
2021/03/04 07:36:26;;;;;;;9.98;1.20;;;;;;;5.42;48.14;100954.09;5068658;28;20029;-68
2021/03/04 07:38:57;;;;;;;3.30;1.13;;;;;;;5.56;47.29;100963.81;5064291;28;20079;-67
2021/03/04 07:41:42;;;;;;;5.05;1.23;;;;;;;5.79;47.44;100960.84;5063152;28;20044;-68
2021/03/04 07:44:09;;;;;;;5.30;1.30;;;;;;;5.94;48.13;100962.88;5062688;28;20025;-67
2021/03/04 07:46:39;;;;;;;6.22;1.10;;;;;;;6.34;47.25;100972.22;5063961;28;20108;-70
2021/03/04 07:49:07;;;;;;;4.18;1.13;;;;;;;6.48;44.34;100964.75;5063866;28;20021;-70
2021/03/04 07:51:47;;;;;;;6.40;1.10;;;;;;;5.92;43.17;100970.56;5064838;28;20060;-68
2021/03/04 07:54:14;;;;;;;3.70;1.02;;;;;;;5.91;43.79;100978.28;5063811;28;20024;-68
2021/03/04 07:56:40;;;;;;;7.82;1.15;;;;;;;5.74;43.64;100977.91;5063972;28;20039;-68
2021/03/04 07:59:13;;;;;;;2.25;1.08;;;;;;;5.68;43.96;100983.81;5063743;28;20092;-68
2021/03/04 08:01:54;;;;;;;3.85;0.90;;;;;;;5.68;43.31;100986.41;5063681;28;20090;-68
2021/03/04 08:04:24;;;;;;;3.60;1.05;;;;;;;5.86;43.50;100992.78;5062284;28;20074;-69
2021/03/04 08:06:51;;;;;;;1.08;0.77;;;;;;;5.91;42.15;100989.44;5063895;28;20465;-69
2021/03/04 08:09:41;;;;;;;7.20;1.00;;;;;;;5.77;41.20;100993.44;5064234;28;20381;-68
2021/03/04 08:12:08;;;;;;;2.45;0.80;;;;;;;5.62;40.67;100988.84;5062433;28;20033;-69
2021/03/04 08:14:35;;;;;;;1.75;0.70;;;;;;;5.59;41.58;100994.81;5063718;28;20096;-68
2021/03/04 08:17:02;;;;;;;4.65;0.70;;;;;;;5.43;39.89;100997.03;5063357;28;20067;-68
2021/03/04 08:19:33;;;;;;;4.97;1.15;;;;;;;5.40;41.01;100965.22;5063663;28;20064;-68
2021/03/04 08:22:03;;;;;;;6.60;1.00;;;;;;;5.44;40.57;101001.34;5063630;28;20025;-68
2021/03/04 08:24:30;;;;;;;1.80;0.73;;;;;;;5.44;40.31;101006.50;5063470;28;20090;-70
2021/03/04 08:26:57;;;;;;;3.92;0.82;;;;;;;5.37;39.17;100996.03;5063448;28;20020;-68
2021/03/04 08:29:23;;;;;;;2.58;0.70;;;;;;;5.36;40.68;101000.31;5063358;28;20025;-69
2021/03/04 08:31:48;;;;;;;4.00;0.80;;;;;;;5.57;38.92;100991.31;5063244;28;20330;-69
2021/03/04 08:34:15;;;;;;;2.47;0.52;;;;;;;5.50;39.14;100999.72;5063393;28;20047;-68
2021/03/04 08:36:46;;;;;;;2.03;0.80;;;;;;;5.30;39.21;101002.75;5063445;28;20055;-69
2021/03/04 08:39:13;;;;;;;6.38;0.90;;;;;;;5.26;40.35;100988.91;5061688;28;20029;-67
2021/03/04 08:41:38;;;;;;;0.63;0.60;;;;;;;5.62;40.71;101004.31;5063425;28;20052;-68
2021/03/04 08:44:15;;;;;;;1.63;0.75;;;;;;;5.57;39.24;101005.03;5063269;28;20033;-68
2021/03/04 08:46:42;;;;;;;3.92;1.10;;;;;;;5.52;39.13;101006.69;5062856;28;20436;-70
2021/03/04 08:49:08;;;;;;;4.20;0.80;;;;;;;5.37;38.59;100986.59;5063272;28;20021;-69
2021/03/04 08:51:44;;;;;;;4.25;0.73;;;;;;;5.21;39.76;100991.41;5063336;28;20030;-69
2021/03/04 08:54:24;;;;;;;1.52;0.93;;;;;;;5.33;39.17;100982.22;5066567;28;20029;-69
2021/03/04 08:56:54;;;;;;;4.93;2.20;;;;;;;5.31;39.45;100989.03;5067288;28;20389;-69
2021/03/04 08:59:22;;;;;;;4.25;1.00;;;;;;;5.28;39.43;100996.69;5067141;28;20025;-69
2021/03/04 09:01:47;;;;;;;2.53;1.10;;;;;;;5.28;38.97;100988.97;5066788;28;20032;-69
2021/03/04 09:04:20;;;;;;;5.68;0.80;;;;;;;5.25;39.25;100964.03;5066937;28;20025;-70
2021/03/04 09:06:45;;;;;;;1.23;0.80;;;;;;;5.17;39.51;100993.88;5066788;28;20029;-69
2021/03/04 09:09:20;;;;;;;4.78;1.30;;;;;;;4.95;39.79;100983.91;5066953;28;20363;-69
2021/03/04 09:11:48;;;;;;;5.28;1.75;;;;;;;5.16;40.67;100990.41;5066997;28;20035;-70
2021/03/04 09:14:14;;;;;;;4.63;1.40;;;;;;;5.45;39.74;100992.78;5066679;28;20024;-69
2021/03/04 09:16:50;;;;;;;6.88;1.00;;;;;;;5.54;39.79;100992.09;5066508;28;20090;-69
2021/03/04 09:19:35;;;;;;;2.85;0.70;;;;;;;5.64;39.83;101003.47;5066769;28;20048;-69
2021/03/04 09:22:08;;;;;;;3.85;0.95;;;;;;;5.73;38.90;100981.34;5066932;28;20057;-68
2021/03/04 09:24:36;;;;;;;4.30;0.98;;;;;;;5.75;38.75;100985.66;5066363;28;20032;-69
2021/03/04 09:27:10;;;;;;;1.58;0.70;;;;;;;5.74;38.08;100994.25;5066397;28;20025;-69
2021/03/04 09:29:40;;;;;;;1.95;0.65;;;;;;;5.56;38.13;100998.16;5066612;28;20028;-69
2021/03/04 09:32:07;;;;;;;3.30;0.82;;;;;;;5.51;38.90;101004.06;5066049;28;20028;-69
2021/03/04 09:34:34;;;;;;;1.63;0.63;;;;;;;5.57;38.02;100988.75;5064668;28;20084;-70
2021/03/04 09:37:08;;;;;;;2.70;1.05;;;;;;;5.49;38.18;100998.88;5066566;28;20037;-70
2021/03/04 09:39:55;;;;;;;2.08;0.60;;;;;;;5.39;38.31;101015.81;5066039;28;20044;-69
2021/03/04 09:42:32;;;;;;;3.60;1.00;;;;;;;5.35;38.40;101015.72;5066256;28;20084;-69
2021/03/04 09:45:03;;;;;;;0.95;0.80;;;;;;;5.37;38.33;101019.22;5066180;28;20021;-69
2021/03/04 09:47:31;;;;;;;5.80;1.50;;;;;;;5.31;39.58;101019.91;5065935;28;20071;-69
2021/03/04 09:49:59;;;;;;;2.08;0.88;;;;;;;5.64;39.67;101013.78;5066336;28;20035;-69
2021/03/04 09:52:25;;;;;;;2.63;0.82;;;;;;;5.94;39.08;101023.00;5066157;28;20044;-70
2021/03/04 09:54:51;;;;;;;1.45;0.70;;;;;;;6.02;37.47;101012.00;5065880;28;20021;-68
2021/03/04 09:57:19;;;;;;;5.68;1.00;;;;;;;5.78;37.51;101010.66;5066025;28;20036;-68
2021/03/04 09:59:49;;;;;;;7.93;1.23;;;;;;;5.68;37.63;101017.31;5066028;28;20032;-69
2021/03/04 10:02:15;;;;;;;6.93;1.02;;;;;;;5.66;37.51;101021.53;5065760;28;20056;-68
2021/03/04 10:05:02;;;;;;;0.88;0.65;;;;;;;5.59;37.57;101018.00;5065105;28;20059;-70
2021/03/04 10:07:31;;;;;;;4.70;0.80;;;;;;;5.50;37.80;101018.63;5065771;28;20257;-69
2021/03/04 10:09:57;;;;;;;3.53;0.98;;;;;;;5.69;38.30;101006.16;5065854;28;20021;-68
2021/03/04 10:12:23;;;;;;;1.73;0.70;;;;;;;6.00;37.66;101013.66;5065685;28;20037;-70
2021/03/04 10:14:51;;;;;;;3.17;1.10;;;;;;;6.34;36.47;101001.47;5065573;28;20108;-69
2021/03/04 10:17:17;;;;;;;1.80;0.93;;;;;;;6.49;35.54;101024.09;5065811;28;20028;-69
2021/03/04 10:19:43;;;;;;;4.03;1.05;;;;;;;6.77;36.29;101016.84;5065710;28;20056;-69
2021/03/04 10:22:09;;;;;;;2.58;1.10;;;;;;;7.73;35.30;101033.78;5065706;28;20029;-69
2021/03/04 10:24:35;;;;;;;1.52;0.70;;;;;;;7.87;33.02;100993.47;5065225;28;20348;-70
2021/03/04 10:27:03;;;;;;;2.03;1.10;;;;;;;7.59;32.90;101029.28;5064265;28;20054;-69
2021/03/04 10:29:29;;;;;;;9.68;1.15;;;;;;;7.37;33.22;101031.56;5065354;28;20032;-69
2021/03/04 10:31:56;;;;;;;6.60;0.80;;;;;;;7.26;34.15;101018.50;5063912;28;20261;-70
2021/03/04 10:34:22;;;;;;;6.95;0.93;;;;;;;7.19;33.41;101016.66;5065270;28;20013;-71
2021/03/04 10:36:47;;;;;;;3.47;0.98;;;;;;;6.87;33.60;101023.03;5065412;28;20033;-70
2021/03/04 10:39:17;;;;;;;3.38;1.30;;;;;;;6.59;34.16;101029.41;5063875;28;20465;-69
2021/03/04 10:41:44;;;;;;;3.65;0.68;;;;;;;6.60;33.89;101029.44;5065062;28;20105;-70
2021/03/04 10:44:11;;;;;;;1.80;0.60;;;;;;;6.53;33.73;101025.03;5064759;28;20021;-69
2021/03/04 10:46:37;;;;;;;3.70;1.02;;;;;;;6.60;34.05;101024.28;5064713;28;20029;-69
2021/03/04 10:49:04;;;;;;;1.13;0.82;;;;;;;6.77;34.27;101027.16;5065014;28;20021;-70
2021/03/04 10:51:30;;;;;;;1.92;0.70;;;;;;;7.19;33.99;101020.09;5064903;28;20021;-70
2021/03/04 10:53:56;;;;;;;3.97;0.95;;;;;;;7.38;32.93;101028.13;5064780;28;20017;-68
2021/03/04 10:56:21;;;;;;;7.22;1.40;;;;;;;7.52;32.71;101020.59;5064906;28;20028;-69
2021/03/04 10:58:46;;;;;;;1.77;1.10;;;;;;;7.86;32.94;101032.25;5064834;28;20031;-70
2021/03/04 11:01:12;;;;;;;1.40;1.10;;;;;;;8.10;32.06;101010.13;5064530;28;20093;-70
2021/03/04 11:03:37;;;;;;;2.22;0.95;;;;;;;8.14;31.99;101023.09;5064787;28;20532;-69
2021/03/04 11:06:03;;;;;;;4.70;1.15;;;;;;;8.50;32.98;101027.81;5064658;28;20021;-70
2021/03/04 11:08:28;;;;;;;3.97;1.10;;;;;;;9.28;32.21;101021.56;5063001;28;20082;-70
2021/03/04 11:10:53;;;;;;;1.83;1.00;;;;;;;9.71;29.86;101030.47;5064547;28;20036;-70
2021/03/04 11:13:19;;;;;;;1.92;1.10;;;;;;;9.62;29.91;101020.03;5064331;28;20032;-70
2021/03/04 11:15:44;;;;;;;2.33;0.60;;;;;;;9.45;29.26;101019.94;5064112;28;20039;-70
2021/03/04 11:18:11;;;;;;;2.08;0.82;;;;;;;9.44;29.07;101013.03;5064205;28;20047;-68
2021/03/04 11:20:36;;;;;;;5.65;0.90;;;;;;;9.58;29.90;101028.66;5063082;28;20029;-70
2021/03/04 11:23:01;;;;;;;4.75;0.90;;;;;;;10.07;30.09;101032.34;5064268;28;20028;-68
2021/03/04 11:25:27;;;;;;;4.10;0.70;;;;;;;10.70;29.01;101039.47;5064351;28;20311;-70
2021/03/04 11:27:52;;;;;;;3.10;0.75;;;;;;;10.91;27.28;101017.81;5064317;28;20051;-69
2021/03/04 11:30:18;;;;;;;1.85;0.60;;;;;;;10.64;27.00;101014.34;5062826;28;20032;-69
2021/03/04 11:32:43;;;;;;;1.38;0.70;;;;;;;10.26;26.99;101035.88;5063868;28;20021;-70
2021/03/04 11:35:09;;;;;;;1.95;0.73;;;;;;;10.06;27.45;101021.13;5063899;28;20021;-69